Time;durP1;ratioP1;P1;durP2;ratioP2;P2;SDS_P1;SDS_P2;PMS_P1;PMS_P2;Temp;Humidity;BMP_temperature;BMP_pressure;BME280_temperature;BME280_humidity;BME280_pressure;Samples;Min_cycle;Max_cycle;Signal;HPM_P1;HPM_P2
2022/01/21 00:00:09;;;;;;;11.00;2.28;;;;;;;1.35;100.00;103269.16;10455803;28;20056;-53
2022/01/21 00:05:12;;;;;;;17.02;2.42;;;;;;;1.38;100.00;103271.78;10456133;28;20045;-51
2022/01/21 00:10:14;;;;;;;9.98;2.58;;;;;;;1.38;100.00;103276.94;10456241;28;20049;-53
2022/01/21 00:15:17;;;;;;;14.80;2.70;;;;;;;1.34;100.00;103264.81;10456002;28;20060;-55
2022/01/21 00:31:01;;;;;;;17.63;3.30;;;;;;;1.02;100.00;103268.44;10456243;28;20048;-54
2022/01/21 00:36:05;;;;;;;14.43;2.42;;;;;;;1.10;100.00;103273.78;10458622;28;20080;-55
2022/01/21 00:41:08;;;;;;;9.02;2.55;;;;;;;0.98;100.00;103270.94;10463200;28;20044;-54
2022/01/21 00:46:13;;;;;;;13.80;2.78;;;;;;;0.92;100.00;103267.41;10463419;28;20041;-53
2022/01/21 00:51:16;;;;;;;14.38;2.63;;;;;;;0.98;100.00;103271.81;10462987;28;20052;-53
2022/01/21 00:56:18;;;;;;;12.18;2.25;;;;;;;0.72;100.00;103276.34;10462860;28;20048;-54
2022/01/21 01:01:21;;;;;;;18.70;4.05;;;;;;;0.86;100.00;103256.06;10462616;28;20053;-53
2022/01/21 01:06:23;;;;;;;19.55;2.70;;;;;;;0.80;100.00;103267.09;10462395;28;20063;-51
2022/01/21 01:11:45;;;;;;;10.25;2.25;;;;;;;0.99;100.00;103255.47;10462935;28;20065;-53
2022/01/21 01:22:09;;;;;;;17.85;3.28;;;;;;;0.77;100.00;103255.84;10461308;28;20478;-52
2022/01/21 01:32:36;;;;;;;13.73;3.00;;;;;;;0.68;100.00;103262.53;10461284;28;20055;-56
2022/01/21 01:37:57;;;;;;;19.67;3.92;;;;;;;0.63;100.00;103252.97;10461100;28;20060;-55
2022/01/21 01:53:39;;;;;;;6.60;2.30;;;;;;;0.93;100.00;103256.22;10460659;28;20048;-54
2022/01/21 01:58:43;;;;;;;20.50;3.92;;;;;;;0.89;100.00;103257.00;10459289;28;20485;-55
2022/01/21 02:03:45;;;;;;;19.30;3.65;;;;;;;0.70;100.00;103255.69;10459024;28;20045;-55
2022/01/21 02:08:48;;;;;;;16.33;4.05;;;;;;;0.65;100.00;103246.97;10459814;28;20072;-52
2022/01/21 02:13:57;;;;;;;15.98;3.55;;;;;;;0.58;100.00;103257.13;10457681;28;20071;-52
2022/01/21 02:24:24;;;;;;;14.95;4.75;;;;;;;0.82;100.00;103259.41;10459561;28;20052;-54
2022/01/21 02:29:37;;;;;;;14.52;3.28;;;;;;;0.93;100.00;103255.34;10459103;28;20049;-55
2022/01/21 02:34:40;;;;;;;14.07;3.38;;;;;;;0.97;100.00;103258.88;10458762;28;20493;-53
2022/01/21 02:39:43;;;;;;;18.00;3.67;;;;;;;1.15;100.00;103258.41;10457273;28;20535;-56
2022/01/21 02:44:46;;;;;;;10.88;3.67;;;;;;;1.05;100.00;103260.78;10458314;28;20049;-51
2022/01/21 02:49:48;;;;;;;19.75;4.20;;;;;;;0.91;100.00;103249.31;10458065;28;20413;-56
2022/01/21 02:54:51;;;;;;;16.45;4.47;;;;;;;0.95;100.00;103263.13;10458790;28;20049;-51
2022/01/21 02:59:53;;;;;;;12.27;3.50;;;;;;;0.87;100.00;103270.69;10457421;28;20056;-56
2022/01/21 03:05:11;;;;;;;21.77;5.47;;;;;;;0.71;100.00;103272.06;10457441;28;20404;-51
2022/01/21 03:10:14;;;;;;;14.52;4.15;;;;;;;0.74;100.00;103266.97;10456435;28;20057;-54
2022/01/21 03:15:17;;;;;;;11.88;3.25;;;;;;;0.63;100.00;103264.13;10457013;28;20060;-53
2022/01/21 03:20:19;;;;;;;15.13;2.88;;;;;;;0.48;100.00;103272.38;10457001;28;20052;-53
2022/01/21 03:25:21;;;;;;;12.25;3.65;;;;;;;0.61;100.00;103267.53;10456707;28;20056;-52
2022/01/21 03:30:23;;;;;;;11.25;2.35;;;;;;;0.49;100.00;103268.97;10457110;28;20064;-53
2022/01/21 03:35:26;;;;;;;15.25;3.13;;;;;;;0.34;100.00;103281.47;10456812;28;20051;-54
2022/01/21 03:40:29;;;;;;;15.32;2.78;;;;;;;0.34;100.00;103269.47;10456613;28;20051;-55
2022/01/21 03:45:31;;;;;;;9.40;2.13;;;;;;;0.45;100.00;103280.03;10456752;28;20056;-50
2022/01/21 03:50:34;;;;;;;13.10;3.28;;;;;;;0.42;100.00;103274.81;10456206;28;20053;-56
2022/01/21 03:55:36;;;;;;;13.52;2.58;;;;;;;0.61;100.00;103273.53;10456451;28;20049;-53
2022/01/21 04:00:45;;;;;;;15.18;2.42;;;;;;;0.59;100.00;103274.31;10456366;28;20049;-55
2022/01/21 04:05:47;;;;;;;17.33;3.33;;;;;;;0.66;100.00;103268.50;10456327;28;20444;-52
2022/01/21 04:10:50;;;;;;;17.60;2.63;;;;;;;0.63;100.00;103277.03;10460845;28;20124;-52
2022/01/21 04:15:55;;;;;;;10.10;2.55;;;;;;;0.57;100.00;103266.56;10464247;28;20052;-54
2022/01/21 04:20:58;;;;;;;15.52;2.95;;;;;;;0.50;100.00;103269.81;10463103;28;20075;-55
2022/01/21 04:26:00;;;;;;;18.85;3.75;;;;;;;0.54;100.00;103274.25;10463917;28;20056;-56
2022/01/21 04:31:02;;;;;;;15.85;4.53;;;;;;;0.59;100.00;103264.91;10464113;28;20055;-52
2022/01/21 04:36:05;;;;;;;16.58;3.70;;;;;;;0.51;100.00;103269.00;10462432;28;20098;-53
2022/01/21 04:41:34;;;;;;;13.70;3.15;;;;;;;0.48;100.00;103262.06;10463122;28;20060;-56
2022/01/21 04:52:11;;;;;;;28.80;4.65;;;;;;;0.38;100.00;103282.44;10463422;28;20053;-53
2022/01/21 04:57:13;;;;;;;16.42;4.20;;;;;;;0.30;100.00;103271.91;10462706;28;20397;-55
2022/01/21 05:02:15;;;;;;;17.63;3.65;;;;;;;0.34;100.00;103266.88;10463072;28;20045;-55
2022/01/21 05:07:22;;;;;;;16.75;4.78;;;;;;;0.37;100.00;103273.84;10461706;28;20041;-55
2022/01/21 05:12:26;;;;;;;10.27;3.15;;;;;;;0.36;100.00;103270.34;10463116;28;20057;-51
2022/01/21 05:17:29;;;;;;;18.00;4.28;;;;;;;0.34;100.00;103274.63;10461839;28;20056;-52
2022/01/21 05:22:33;;;;;;;20.30;4.30;;;;;;;0.21;100.00;103275.13;10460925;28;20408;-55
2022/01/21 05:27:35;;;;;;;9.02;3.28;;;;;;;0.34;100.00;103271.19;10461604;28;20045;-52
2022/01/21 05:32:37;;;;;;;9.80;3.88;;;;;;;0.34;100.00;103274.63;10461395;28;20127;-54
2022/01/21 05:37:40;;;;;;;15.23;3.80;;;;;;;0.27;100.00;103283.03;10461162;28;20061;-54
2022/01/21 05:42:43;;;;;;;14.20;3.38;;;;;;;0.37;100.00;103273.84;10461049;28;20045;-52
2022/01/21 05:47:45;;;;;;;14.25;4.28;;;;;;;0.41;100.00;103272.19;10460531;28;20390;-50
2022/01/21 05:52:48;;;;;;;15.90;3.00;;;;;;;0.38;100.00;103275.56;10460693;28;20057;-54
2022/01/21 05:57:50;;;;;;;8.18;2.75;;;;;;;0.44;100.00;103283.44;10460302;28;20516;-54
2022/01/21 06:02:52;;;;;;;10.43;3.35;;;;;;;0.43;100.00;103283.41;10459732;28;20501;-52
2022/01/21 06:07:55;;;;;;;9.82;3.15;;;;;;;0.63;100.00;103287.34;10459643;28;20397;-56
2022/01/21 06:12:57;;;;;;;23.45;4.10;;;;;;;0.53;100.00;103286.25;10459196;28;20045;-54
2022/01/21 06:18:00;;;;;;;10.52;2.85;;;;;;;0.51;100.00;103287.06;10459571;28;20071;-54
2022/01/21 06:23:03;;;;;;;10.40;3.80;;;;;;;0.47;100.00;103286.09;10458421;28;20467;-53
2022/01/21 06:28:05;;;;;;;7.90;2.42;;;;;;;0.55;100.00;103294.00;10458807;28;20503;-52
2022/01/21 06:33:09;;;;;;;17.90;2.60;;;;;;;0.62;100.00;103308.78;10457940;28;20048;-54
2022/01/21 06:38:11;;;;;;;21.45;4.40;;;;;;;0.60;100.00;103309.59;10458710;28;20049;-51
2022/01/21 06:43:14;;;;;;;14.55;2.97;;;;;;;0.61;100.00;103326.81;10458440;28;20056;-53
2022/01/21 06:48:16;;;;;;;12.77;3.25;;;;;;;0.61;100.00;103339.72;10458184;28;20064;-52
2022/01/21 06:53:18;;;;;;;15.10;3.80;;;;;;;0.57;100.00;103337.88;10458456;28;20052;-56
2022/01/21 06:58:21;;;;;;;17.65;4.05;;;;;;;0.70;100.00;103333.06;10456833;28;20382;-49
2022/01/21 07:03:24;;;;;;;10.98;2.65;;;;;;;0.74;100.00;103324.56;10456945;28;20059;-50
2022/01/21 07:08:27;;;;;;;16.10;3.20;;;;;;;0.81;100.00;103343.66;10457409;28;20088;-54
2022/01/21 07:13:30;;;;;;;14.30;3.63;;;;;;;0.78;100.00;103340.13;10456218;28;20060;-52
2022/01/21 07:18:32;;;;;;;20.67;3.05;;;;;;;0.75;100.00;103356.38;10456932;28;20044;-51
2022/01/21 07:23:34;;;;;;;17.33;3.25;;;;;;;0.82;100.00;103355.69;10456872;28;20041;-49
2022/01/21 07:28:36;;;;;;;15.10;3.60;;;;;;;1.02;100.00;103358.75;10456866;28;20500;-53
2022/01/21 07:33:39;;;;;;;15.68;3.65;;;;;;;0.93;100.00;103354.25;10457334;28;20056;-54
2022/01/21 07:38:41;;;;;;;17.77;3.80;;;;;;;0.92;100.00;103344.78;10455928;28;20050;-53
2022/01/21 07:43:44;;;;;;;15.13;3.97;;;;;;;1.13;100.00;103355.53;10455850;28;20051;-55
2022/01/21 07:48:46;;;;;;;11.02;3.47;;;;;;;1.06;100.00;103354.53;10456723;28;20049;-52
2022/01/21 07:53:48;;;;;;;13.30;3.13;;;;;;;1.26;100.00;103357.56;10456556;28;20048;-56
2022/01/21 07:58:52;;;;;;;8.52;3.13;;;;;;;1.31;100.00;103345.63;10455013;28;20053;-52
2022/01/21 08:03:54;;;;;;;17.30;3.63;;;;;;;1.29;100.00;103340.47;10456087;28;20124;-55
2022/01/21 08:08:57;;;;;;;16.13;3.55;;;;;;;1.41;100.00;103345.03;10455865;28;20517;-53
2022/01/21 08:13:59;;;;;;;14.13;3.40;;;;;;;1.35;100.00;103349.19;10456233;28;20053;-53
2022/01/21 08:19:03;;;;;;;13.18;3.67;;;;;;;1.29;100.00;103345.63;10455935;28;20041;-55
2022/01/21 08:24:07;;;;;;;13.43;3.75;;;;;;;1.33;100.00;103340.50;10455695;28;20056;-53
2022/01/21 08:29:10;;;;;;;16.70;4.15;;;;;;;1.47;100.00;103339.97;10455990;28;20052;-50
2022/01/21 08:34:16;;;;;;;10.13;3.95;;;;;;;1.50;100.00;103357.25;10454315;28;20057;-53
2022/01/21 08:39:18;;;;;;;15.82;4.30;;;;;;;1.85;100.00;103341.63;10455536;28;20045;-55
2022/01/21 08:44:20;;;;;;;12.90;3.67;;;;;;;1.79;100.00;103341.47;10454259;28;20052;-54
2022/01/21 08:49:23;;;;;;;18.50;4.47;;;;;;;1.77;100.00;103346.63;10455254;28;20053;-52
2022/01/21 08:54:27;;;;;;;11.15;3.78;;;;;;;1.60;100.00;103333.38;10453795;28;20064;-53
2022/01/21 08:59:31;;;;;;;18.40;4.18;;;;;;;1.74;100.00;103335.34;10461929;28;20056;-56
2022/01/21 09:04:33;;;;;;;10.88;4.55;;;;;;;1.62;100.00;103344.59;10462479;28;20051;-52
2022/01/21 09:09:36;;;;;;;18.02;4.65;;;;;;;2.00;100.00;103348.78;10462684;28;20049;-52
2022/01/21 09:14:38;;;;;;;10.85;3.88;;;;;;;3.11;100.00;103343.78;10462565;28;20049;-56
2022/01/21 09:19:40;;;;;;;13.98;4.38;;;;;;;5.52;96.66;103340.88;10461840;28;20056;-55
2022/01/21 09:24:43;;;;;;;16.15;4.35;;;;;;;6.73;84.94;103340.25;10461469;28;20489;-53
2022/01/21 09:29:45;;;;;;;10.18;3.30;;;;;;;6.95;83.64;103343.72;10461572;28;20131;-55
2022/01/21 09:34:48;;;;;;;12.15;3.45;;;;;;;7.39;82.41;103345.34;10460012;28;20409;-57
2022/01/21 09:39:50;;;;;;;13.77;3.75;;;;;;;4.38;88.02;103353.91;10443470;28;20524;-55
2022/01/21 09:44:53;;;;;;;10.70;2.80;;;;;;;3.54;100.00;103354.69;10460835;28;20045;-52
2022/01/21 09:49:55;;;;;;;15.88;3.33;;;;;;;3.61;100.00;103359.97;10460626;28;20390;-56
2022/01/21 09:54:58;;;;;;;13.35;3.35;;;;;;;8.50;80.88;103352.59;10443446;28;20061;-53
2022/01/21 10:00:00;;;;;;;11.93;3.10;;;;;;;4.26;93.91;103367.63;10460229;28;20056;-51
2022/01/21 10:05:04;;;;;;;11.07;3.22;;;;;;;4.94;94.64;103370.84;10459111;28;20091;-54
2022/01/21 10:10:08;;;;;;;10.18;2.53;;;;;;;7.01;90.29;103366.25;10459733;28;20053;-56
2022/01/21 10:15:23;;;;;;;13.32;3.55;;;;;;;7.31;84.48;103364.47;10460165;28;20064;-53
2022/01/21 10:20:25;;;;;;;9.80;3.53;;;;;;;6.42;88.03;103374.09;10459622;28;20049;-55
2022/01/21 10:25:28;;;;;;;14.07;3.17;;;;;;;11.05;72.39;103370.25;10459252;28;20056;-56
2022/01/21 10:30:31;;;;;;;14.98;2.80;;;;;;;6.98;84.33;103384.53;10459115;28;20057;-55
2022/01/21 10:35:39;;;;;;;8.73;2.95;;;;;;;6.39;90.72;103387.09;10459091;28;20048;-57
2022/01/21 10:40:42;;;;;;;14.23;2.90;;;;;;;5.42;90.58;103373.72;10459029;28;20052;-55
2022/01/21 10:45:56;;;;;;;10.80;2.88;;;;;;;5.93;89.92;103373.94;10458678;28;20402;-53
2022/01/21 10:51:20;;;;;;;17.23;2.65;;;;;;;5.94;92.19;103360.09;10458271;28;20424;-54
2022/01/21 10:56:24;;;;;;;9.80;2.97;;;;;;;6.04;92.65;103345.41;10458054;28;20045;-52
2022/01/21 11:01:29;;;;;;;13.02;4.47;;;;;;;5.62;94.44;103349.56;10458436;28;20055;-50
2022/01/21 11:06:47;;;;;;;9.07;3.40;;;;;;;5.41;93.21;103343.41;10457641;28;20049;-58
2022/01/21 11:12:09;;;;;;;14.57;4.35;;;;;;;5.75;93.33;103335.75;10456669;28;20053;-55
2022/01/21 11:17:15;;;;;;;7.90;3.20;;;;;;;6.95;92.24;103341.09;10458405;28;20052;-56
2022/01/21 11:22:26;;;;;;;17.10;3.40;;;;;;;6.74;93.20;103331.59;10457548;28;20049;-55
2022/01/21 11:27:28;;;;;;;12.57;3.30;;;;;;;6.16;93.28;103340.22;10457717;28;20041;-57
2022/01/21 11:32:30;;;;;;;18.08;2.85;;;;;;;5.94;96.84;103337.53;10457039;28;20060;-57
2022/01/21 11:37:33;;;;;;;21.58;3.30;;;;;;;5.87;99.07;103333.19;10456816;28;20049;-54
2022/01/21 11:42:39;;;;;;;12.75;3.13;;;;;;;5.89;99.09;103335.81;10455644;28;20056;-58
2022/01/21 11:48:00;;;;;;;14.70;4.13;;;;;;;5.47;100.00;103340.84;10455239;28;20053;-58
2022/01/21 11:53:05;;;;;;;15.38;3.38;;;;;;;5.51;100.00;103339.97;10456710;28;20057;-52
2022/01/21 11:58:22;;;;;;;13.20;3.15;;;;;;;5.62;100.00;103332.25;10455203;28;20048;-54
2022/01/21 12:03:24;;;;;;;20.98;4.15;;;;;;;5.35;100.00;103327.78;10456150;28;20511;-57
2022/01/21 12:08:47;;;;;;;18.70;3.03;;;;;;;5.33;100.00;103313.91;10454873;28;20057;-56
2022/01/21 12:13:49;;;;;;;13.40;3.38;;;;;;;5.29;100.00;103310.44;10456315;28;20429;-53
2022/01/21 12:24:09;;;;;;;16.02;3.25;;;;;;;5.68;100.00;103313.19;10456410;28;20049;-57
2022/01/21 12:29:18;;;;;;;11.32;2.55;;;;;;;5.77;100.00;103300.25;10456059;28;20053;-56
2022/01/21 12:34:21;;;;;;;10.93;3.58;;;;;;;5.66;100.00;103300.19;10464027;28;20056;-55
2022/01/21 12:39:42;;;;;;;13.27;2.58;;;;;;;5.45;100.00;103301.00;10463796;28;20378;-54
2022/01/21 12:44:45;;;;;;;18.23;2.97;;;;;;;5.38;100.00;103297.50;10463415;28;20052;-53
2022/01/21 12:49:52;;;;;;;11.15;2.67;;;;;;;5.43;100.00;103291.44;10463126;28;20072;-58
2022/01/21 13:00:16;;;;;;;20.67;4.07;;;;;;;5.64;100.00;103268.13;10461511;28;20489;-52
2022/01/21 13:05:32;;;;;;;18.73;3.33;;;;;;;5.49;100.00;103271.53;10463163;28;20056;-55
2022/01/21 13:10:35;;;;;;;12.43;3.08;;;;;;;5.55;100.00;103268.97;10461172;28;20060;-53
2022/01/21 13:15:37;;;;;;;12.20;2.67;;;;;;;5.95;100.00;103269.06;10463162;28;20048;-57
2022/01/21 13:20:42;;;;;;;15.63;3.47;;;;;;;5.85;100.00;103263.84;10462004;28;20499;-55
2022/01/21 13:25:46;;;;;;;17.48;3.75;;;;;;;6.05;100.00;103269.09;10461647;28;20401;-57
2022/01/21 13:30:48;;;;;;;16.17;3.50;;;;;;;5.92;100.00;103263.00;10461613;28;20045;-55
2022/01/21 13:35:50;;;;;;;22.45;4.72;;;;;;;5.76;100.00;103264.69;10461222;28;20056;-55
2022/01/21 13:40:57;;;;;;;11.95;2.33;;;;;;;5.65;100.00;103250.78;10460467;28;20440;-56
2022/01/21 13:46:04;;;;;;;13.45;3.47;;;;;;;5.72;100.00;103250.81;10460324;28;20516;-56
2022/01/21 13:51:08;;;;;;;12.68;3.00;;;;;;;5.75;100.00;103234.38;10461605;28;20095;-55
2022/01/21 13:56:15;;;;;;;12.60;2.88;;;;;;;5.57;100.00;103243.00;10444519;28;20049;-54
2022/01/21 14:01:21;;;;;;;10.45;3.33;;;;;;;5.56;100.00;103249.03;10460357;28;20075;-53
2022/01/21 14:06:24;;;;;;;19.42;3.33;;;;;;;5.69;100.00;103245.63;10460591;28;20083;-51
2022/01/21 14:11:36;;;;;;;18.30;4.07;;;;;;;5.63;100.00;103249.94;10459775;28;20379;-51
2022/01/21 14:16:51;;;;;;;18.33;4.00;;;;;;;5.66;100.00;103261.19;10460337;28;20049;-57
2022/01/21 14:22:02;;;;;;;12.73;4.13;;;;;;;5.66;100.00;103250.81;10459856;28;20065;-56
2022/01/21 14:27:05;;;;;;;16.75;3.08;;;;;;;5.59;100.00;103242.13;10459512;28;20049;-56
2022/01/21 14:32:37;;;;;;;19.13;3.05;;;;;;;5.50;100.00;103241.25;10459235;28;20442;-55
2022/01/21 14:37:46;;;;;;;17.80;3.65;;;;;;;5.43;100.00;103229.97;10459247;28;20040;-55
2022/01/21 14:42:48;;;;;;;17.83;3.75;;;;;;;5.45;100.00;103225.66;10458736;28;20049;-52
2022/01/21 14:47:50;;;;;;;10.82;3.03;;;;;;;5.56;100.00;103228.25;10458568;28;20049;-57
2022/01/21 14:52:58;;;;;;;20.15;4.38;;;;;;;5.48;100.00;103233.44;10457533;28;20056;-56
2022/01/21 14:58:16;;;;;;;21.08;3.08;;;;;;;5.40;100.00;103227.38;10458764;28;20061;-56
2022/01/21 15:03:30;;;;;;;8.88;2.60;;;;;;;5.35;100.00;103235.13;10457814;28;20045;-55
2022/01/21 15:09:00;;;;;;;15.20;3.78;;;;;;;5.48;100.00;103215.25;10457489;28;20497;-55
2022/01/21 15:14:33;;;;;;;21.35;3.70;;;;;;;5.49;100.00;103223.91;10457674;28;20045;-57
2022/01/21 15:19:40;;;;;;;19.10;4.20;;;;;;;5.36;100.00;103223.88;10457289;28;20505;-55
2022/01/21 15:24:43;;;;;;;16.17;3.42;;;;;;;5.27;100.00;103235.97;10457473;28;20045;-54
2022/01/21 15:29:46;;;;;;;15.43;3.58;;;;;;;5.33;100.00;103230.78;10456922;28;20052;-54
2022/01/21 15:34:49;;;;;;;12.80;3.40;;;;;;;5.39;100.00;103231.66;10456934;28;20060;-58
2022/01/21 15:39:51;;;;;;;11.20;3.40;;;;;;;5.33;100.00;103233.38;10456642;28;20053;-57
2022/01/21 15:44:56;;;;;;;13.15;4.43;;;;;;;5.32;100.00;103232.53;10456543;28;20045;-56
2022/01/21 15:49:58;;;;;;;15.95;4.15;;;;;;;5.15;100.00;103237.66;10456409;28;20486;-56
2022/01/21 15:55:08;;;;;;;18.48;4.95;;;;;;;5.29;100.00;103237.69;10456751;28;20051;-56
2022/01/21 16:00:10;;;;;;;14.77;4.05;;;;;;;5.32;100.00;103227.31;10456965;28;20048;-55
2022/01/21 16:05:13;;;;;;;14.80;3.60;;;;;;;5.28;100.00;103222.09;10458317;28;20057;-53
2022/01/21 16:10:15;;;;;;;20.38;4.75;;;;;;;5.17;100.00;103222.94;10464291;28;20057;-55
2022/01/21 16:15:17;;;;;;;15.55;5.00;;;;;;;5.17;100.00;103215.13;10464586;28;20107;-53
2022/01/21 16:20:20;;;;;;;13.10;3.42;;;;;;;5.08;100.00;103222.03;10464388;28;20053;-53
2022/01/21 16:25:22;;;;;;;11.57;3.42;;;;;;;5.05;100.00;103238.47;10463855;28;20519;-57
2022/01/21 16:30:24;;;;;;;19.08;3.85;;;;;;;4.96;100.00;103231.50;10464015;28;20048;-54
2022/01/21 16:35:28;;;;;;;16.27;4.28;;;;;;;4.98;100.00;103232.38;10463843;28;20053;-54
2022/01/21 16:40:30;;;;;;;18.02;4.55;;;;;;;5.02;100.00;103221.13;10463491;28;20049;-53
2022/01/21 16:45:32;;;;;;;8.73;4.07;;;;;;;4.98;100.00;103228.91;10463352;28;20128;-55
2022/01/21 16:50:36;;;;;;;11.75;3.67;;;;;;;5.00;100.00;103224.59;10463039;28;20049;-55
2022/01/21 16:55:38;;;;;;;18.17;4.30;;;;;;;4.99;100.00;103233.22;10462749;28;20508;-53
2022/01/21 17:00:40;;;;;;;24.90;6.75;;;;;;;4.86;100.00;103226.25;10463115;28;20131;-57
2022/01/21 17:05:44;;;;;;;28.83;5.95;;;;;;;4.90;100.00;103218.47;10462823;28;20048;-54
2022/01/21 17:10:51;;;;;;;13.48;3.72;;;;;;;4.95;100.00;103221.97;10462810;28;20087;-54
2022/01/21 17:15:53;;;;;;;26.58;5.65;;;;;;;4.79;100.00;103220.16;10461969;28;20136;-55
2022/01/21 17:20:55;;;;;;;19.92;5.07;;;;;;;4.86;100.00;103218.44;10461865;28;20045;-57
2022/01/21 17:25:58;;;;;;;13.77;4.35;;;;;;;4.85;100.00;103222.78;10461482;28;20072;-55
2022/01/21 17:31:00;;;;;;;21.98;3.95;;;;;;;4.87;100.00;103210.69;10461502;28;20063;-53
2022/01/21 17:36:03;;;;;;;17.35;3.45;;;;;;;4.86;100.00;103216.75;10461712;28;20110;-55
2022/01/21 17:41:05;;;;;;;19.92;5.03;;;;;;;4.79;100.00;103208.06;10461146;28;20075;-56
2022/01/21 17:46:08;;;;;;;17.83;4.38;;;;;;;4.86;100.00;103221.03;10461055;28;20099;-57
2022/01/21 17:51:12;;;;;;;28.33;3.85;;;;;;;4.68;100.00;103220.09;10461106;28;20124;-55
2022/01/21 17:56:15;;;;;;;27.63;6.72;;;;;;;4.65;100.00;103220.94;10460565;28;20052;-52
2022/01/21 18:01:18;;;;;;;12.88;3.55;;;;;;;4.70;100.00;103220.09;10460901;28;20140;-57
2022/01/21 18:06:20;;;;;;;22.30;5.50;;;;;;;4.71;100.00;103220.13;10460157;28;20508;-55
2022/01/21 18:11:25;;;;;;;15.38;4.30;;;;;;;4.67;100.00;103222.69;10459898;28;20140;-55
2022/01/21 18:16:27;;;;;;;18.17;4.10;;;;;;;4.66;100.00;103232.19;10460252;28;20049;-57
2022/01/21 18:21:30;;;;;;;20.80;4.45;;;;;;;4.62;100.00;103223.53;10460054;28;20045;-55
2022/01/21 18:26:32;;;;;;;18.83;5.15;;;;;;;4.61;100.00;103221.78;10458196;28;20503;-55
2022/01/21 18:31:36;;;;;;;21.48;4.97;;;;;;;4.67;100.00;103214.91;10459159;28;20049;-53
2022/01/21 18:36:39;;;;;;;22.10;5.03;;;;;;;4.61;100.00;103218.34;10458839;28;20048;-57
2022/01/21 18:41:42;;;;;;;16.02;3.90;;;;;;;4.56;100.00;103226.06;10458992;28;20060;-54
2022/01/21 18:46:47;;;;;;;18.00;4.70;;;;;;;4.62;100.00;103233.91;10458403;28;20064;-56
2022/01/21 18:51:50;;;;;;;23.30;4.15;;;;;;;4.59;100.00;103231.28;10458850;28;20049;-55
2022/01/21 18:56:53;;;;;;;13.90;3.85;;;;;;;4.57;100.00;103242.50;10458324;28;20057;-57
2022/01/21 19:02:07;;;;;;;19.10;4.18;;;;;;;4.48;100.00;103240.72;10458001;28;20508;-53
2022/01/21 19:07:09;;;;;;;17.63;4.53;;;;;;;4.58;100.00;103245.13;10458852;28;20128;-55
2022/01/21 19:12:12;;;;;;;24.83;4.03;;;;;;;4.54;100.00;103256.34;10457115;28;20063;-55
2022/01/21 19:17:14;;;;;;;25.98;6.00;;;;;;;4.53;100.00;103240.75;10440607;28;20048;-55
2022/01/21 19:22:17;;;;;;;15.27;3.63;;;;;;;4.53;100.00;103230.38;10457566;28;20056;-50
2022/01/21 19:27:20;;;;;;;17.88;3.92;;;;;;;4.57;100.00;103243.41;10457505;28;20046;-57
2022/01/21 19:32:22;;;;;;;15.95;4.60;;;;;;;4.52;100.00;103241.59;10457268;28;20436;-55
2022/01/21 19:37:25;;;;;;;26.65;5.60;;;;;;;4.54;100.00;103245.97;10457647;28;20049;-57
2022/01/21 19:42:27;;;;;;;23.67;4.70;;;;;;;4.52;100.00;103244.19;10456778;28;20049;-55
2022/01/21 19:47:43;;;;;;;18.75;5.55;;;;;;;4.43;100.00;103252.78;10456902;28;20057;-51
2022/01/21 19:52:46;;;;;;;17.98;3.25;;;;;;;4.43;100.00;103257.97;10457224;28;20127;-55
2022/01/21 19:57:56;;;;;;;14.45;4.50;;;;;;;4.44;100.00;103268.38;10456529;28;20052;-56
2022/01/21 20:13:37;;;;;;;22.73;4.65;;;;;;;4.52;100.00;103264.94;10456669;28;20061;-52
2022/01/21 20:18:41;;;;;;;30.23;4.25;;;;;;;4.48;100.00;103266.66;10455743;28;20056;-57
2022/01/21 20:23:45;;;;;;;23.52;4.50;;;;;;;4.47;100.00;103267.50;10456308;28;20497;-56
2022/01/21 20:28:48;;;;;;;21.73;4.40;;;;;;;4.46;100.00;103268.38;10454723;28;20055;-56
2022/01/21 20:33:52;;;;;;;23.17;4.28;;;;;;;4.49;100.00;103268.41;10455871;28;20049;-54
2022/01/21 20:39:14;;;;;;;16.20;4.25;;;;;;;4.47;100.00;103271.00;10454522;28;20056;-54
2022/01/21 20:44:21;;;;;;;21.48;4.53;;;;;;;4.35;100.00;103263.09;10455437;28;20064;-57
2022/01/21 20:49:25;;;;;;;21.02;5.40;;;;;;;4.31;100.00;103263.09;10455468;28;20412;-53
2022/01/21 20:54:28;;;;;;;22.38;6.53;;;;;;;4.26;100.00;103261.28;10460551;28;20406;-55
2022/01/21 20:59:32;;;;;;;16.80;6.53;;;;;;;4.25;100.00;103259.59;10463436;28;20060;-55
2022/01/21 21:04:36;;;;;;;28.90;8.32;;;;;;;4.11;100.00;103255.13;10465021;28;20535;-52
2022/01/21 21:09:38;;;;;;;20.42;8.80;;;;;;;4.15;100.00;103256.88;10461236;28;20505;-55
2022/01/21 21:14:47;;;;;;;24.92;9.15;;;;;;;4.09;100.00;103243.00;10462326;28;20491;-56
2022/01/21 21:25:14;;;;;;;28.25;9.38;;;;;;;4.06;100.00;103245.56;10462591;28;20055;-54
2022/01/21 22:34:05;;;;;;;20.13;7.95;;;;;;;4.04;100.00;103221.34;10459330;28;20053;-55
2022/01/21 23:00:19;;;;;;;22.73;9.52;;;;;;;4.04;100.00;103234.31;10459002;28;20048;-56
2022/01/21 23:05:23;;;;;;;19.38;6.70;;;;;;;4.08;100.00;103243.00;10457790;28;20045;-52
2022/01/21 23:10:27;;;;;;;17.23;6.20;;;;;;;4.16;100.00;103250.84;10458114;28;20057;-55
2022/01/21 23:15:33;;;;;;;16.80;7.10;;;;;;;4.15;100.00;103231.81;10456688;28;20057;-56
2022/01/21 23:20:36;;;;;;;13.90;6.85;;;;;;;4.12;100.00;103234.41;10457439;28;20478;-55
2022/01/21 23:25:59;;;;;;;26.90;7.10;;;;;;;4.13;100.00;103222.28;10456099;28;20052;-56
2022/01/21 23:31:01;;;;;;;25.90;6.63;;;;;;;4.10;100.00;103217.94;10457564;28;20049;-52
2022/01/21 23:36:04;;;;;;;16.83;6.63;;;;;;;4.12;100.00;103212.75;10457703;28;20123;-56
2022/01/21 23:41:11;;;;;;;15.32;6.38;;;;;;;4.09;100.00;103222.25;10457275;28;20060;-56
2022/01/21 23:46:15;;;;;;;14.18;6.72;;;;;;;4.11;100.00;103226.59;10456631;28;20516;-55
2022/01/21 23:51:20;;;;;;;19.05;7.85;;;;;;;4.06;100.00;103230.00;10456899;28;20057;-58
2022/01/21 23:56:22;;;;;;;16.45;7.32;;;;;;;3.98;100.00;103228.22;10456479;28;20049;-53
